createdAt,value
2019-02-19T00:00:40.110Z,9.60
2019-02-19T00:03:12.082Z,9.47
2019-02-19T00:05:42.552Z,9.53
2019-02-19T00:08:13.035Z,8.90
2019-02-19T00:10:45.080Z,8.63
2019-02-19T00:13:16.815Z,7.60
2019-02-19T00:16:03.309Z,9.40
2019-02-19T00:18:35.669Z,9.17
2019-02-19T00:21:07.021Z,8.67
2019-02-19T00:23:38.415Z,8.73
2019-02-19T00:26:13.791Z,9.47
2019-02-19T00:28:44.197Z,8.93
2019-02-19T00:31:14.673Z,9.03
2019-02-19T00:33:45.116Z,9.60
2019-02-19T00:36:17.134Z,9.17
2019-02-19T00:38:47.668Z,8.80
2019-02-19T00:41:34.166Z,8.93
2019-02-19T00:44:05.061Z,9.00
2019-02-19T00:46:35.515Z,9.33
2019-02-19T00:49:05.958Z,9.77
2019-02-19T00:54:25.719Z,10.90
2019-02-19T00:56:56.208Z,9.90
2019-02-19T00:59:26.686Z,9.00
2019-02-19T01:01:57.092Z,9.57
2019-02-19T01:04:27.503Z,9.87
2019-02-19T01:06:57.914Z,8.87
2019-02-19T01:09:28.655Z,9.60
2019-02-19T01:11:59.049Z,11.03
2019-02-19T01:14:29.500Z,10.77
2019-02-19T01:17:00.002Z,12.30
2019-02-19T01:22:19.832Z,15.70
2019-02-19T01:24:50.291Z,12.80
2019-02-19T01:27:20.741Z,12.77
2019-02-19T01:29:51.221Z,12.60
2019-02-19T01:32:21.648Z,10.33
2019-02-19T01:34:52.101Z,11.13
2019-02-19T01:37:22.490Z,11.03
2019-02-19T01:39:52.926Z,10.17
2019-02-19T01:42:23.359Z,9.73
2019-02-19T01:44:53.782Z,8.93
2019-02-19T01:47:25.075Z,10.40
2019-02-19T01:49:55.492Z,11.83
2019-02-19T01:52:25.971Z,12.90
2019-02-19T01:54:56.408Z,11.87
2019-02-19T01:57:27.249Z,12.07
2019-02-19T02:00:00.610Z,12.23
2019-02-19T02:02:31.044Z,12.93
2019-02-19T02:05:01.471Z,13.50
2019-02-19T02:07:31.881Z,13.13
2019-02-19T02:10:02.298Z,13.33
2019-02-19T02:12:32.705Z,12.33
2019-02-19T02:15:03.109Z,12.87
2019-02-19T02:17:33.521Z,11.30
2019-02-19T02:20:04.339Z,12.63
2019-02-19T02:22:36.397Z,12.97
2019-02-19T02:25:06.820Z,12.23
2019-02-19T02:27:38.842Z,12.43
2019-02-19T02:30:09.244Z,12.57
2019-02-19T02:32:39.694Z,13.57
2019-02-19T02:35:11.416Z,10.93
2019-02-19T02:37:41.958Z,10.80
2019-02-19T02:40:12.404Z,9.70
2019-02-19T02:42:42.825Z,11.90
2019-02-19T02:45:13.270Z,11.70
2019-02-19T02:47:43.723Z,13.37
2019-02-19T02:50:14.107Z,13.33
2019-02-19T02:52:44.591Z,13.10
2019-02-19T02:55:15.014Z,11.60
2019-02-19T02:57:45.409Z,12.17
2019-02-19T03:00:15.831Z,11.90
2019-02-19T03:02:46.293Z,11.77
2019-02-19T03:05:16.715Z,13.30
2019-02-19T03:07:48.688Z,12.63
2019-02-19T03:10:19.121Z,13.10
2019-02-19T03:12:49.566Z,13.73
2019-02-19T03:15:20.007Z,14.43
2019-02-19T03:17:50.401Z,14.37
2019-02-19T03:20:20.844Z,15.37
2019-02-19T03:22:51.305Z,14.43
2019-02-19T03:25:21.761Z,15.17
2019-02-19T03:27:52.141Z,14.00
2019-02-19T03:30:22.567Z,14.90
2019-02-19T03:32:52.987Z,14.17
2019-02-19T03:35:23.414Z,13.03
2019-02-19T03:37:53.860Z,13.63
2019-02-19T03:40:25.250Z,12.43
2019-02-19T03:42:55.731Z,12.80
2019-02-19T03:45:26.166Z,12.40
2019-02-19T03:47:56.591Z,11.13
2019-02-19T03:50:30.784Z,12.27
2019-02-19T03:53:01.236Z,12.57
2019-02-19T03:55:31.652Z,10.97
2019-02-19T03:58:03.568Z,11.10
2019-02-19T04:00:34.019Z,11.93
2019-02-19T04:03:04.458Z,11.10
2019-02-19T04:05:36.481Z,10.40
2019-02-19T04:08:09.673Z,11.27
2019-02-19T04:10:40.121Z,10.90
2019-02-19T04:13:10.567Z,11.10
2019-02-19T04:15:41.410Z,10.37
2019-02-19T04:18:11.867Z,10.13
2019-02-19T04:20:42.335Z,9.77
2019-02-19T04:23:12.815Z,9.80
2019-02-19T04:25:44.261Z,11.23
2019-02-19T04:28:16.949Z,9.90
2019-02-19T04:30:47.347Z,11.37
2019-02-19T04:33:18.774Z,10.70
2019-02-19T04:35:50.604Z,9.90
2019-02-19T04:38:23.277Z,10.80
2019-02-19T04:40:53.696Z,11.73
2019-02-19T04:43:25.277Z,11.87
2019-02-19T04:45:55.711Z,12.00
2019-02-19T04:48:27.799Z,13.07
2019-02-19T04:50:59.762Z,13.67
2019-02-19T04:53:33.752Z,16.33
2019-02-19T04:56:04.191Z,16.83
2019-02-19T04:58:34.609Z,17.20
2019-02-19T05:01:05.137Z,17.97
2019-02-19T05:03:35.736Z,17.53
2019-02-19T05:06:06.157Z,18.43
2019-02-19T05:08:36.610Z,17.97
2019-02-19T05:11:09.137Z,18.80
2019-02-19T05:13:39.563Z,22.30
2019-02-19T05:16:09.963Z,23.50
2019-02-19T05:18:40.401Z,22.20
2019-02-19T05:21:12.219Z,24.27
2019-02-19T05:23:44.122Z,21.80
2019-02-19T05:26:16.186Z,24.00
2019-02-19T05:28:46.601Z,22.33
2019-02-19T05:31:17.066Z,21.10
2019-02-19T05:33:47.492Z,20.57
2019-02-19T05:36:17.914Z,20.60
2019-02-19T05:38:48.364Z,21.50
2019-02-19T05:41:18.793Z,19.20
2019-02-19T05:43:49.596Z,16.70
2019-02-19T05:46:20.626Z,20.83
2019-02-19T05:48:51.146Z,18.23
2019-02-19T05:51:21.534Z,17.83
2019-02-19T05:53:53.556Z,17.97
2019-02-19T05:56:25.676Z,18.17
2019-02-19T05:58:57.682Z,18.23
2019-02-19T06:01:30.156Z,17.27
2019-02-19T06:04:01.003Z,17.10
2019-02-19T06:06:31.420Z,18.13
2019-02-19T06:09:01.829Z,14.87
2019-02-19T06:11:32.253Z,14.87
2019-02-19T06:14:02.706Z,16.73
2019-02-19T06:16:33.138Z,14.40
2019-02-19T06:19:03.552Z,20.27
2019-02-19T06:21:34.006Z,21.20
2019-02-19T06:24:04.443Z,21.97
2019-02-19T06:26:34.878Z,24.50
2019-02-19T06:29:05.284Z,24.07
2019-02-19T06:31:35.677Z,22.70
2019-02-19T06:34:06.080Z,22.63
2019-02-19T06:36:36.481Z,20.97
2019-02-19T06:39:06.886Z,17.07
2019-02-19T06:41:37.308Z,15.10
2019-02-19T06:44:07.715Z,16.20
2019-02-19T06:46:38.138Z,16.23
2019-02-19T06:49:08.536Z,17.30
2019-02-19T06:51:38.933Z,17.50
2019-02-19T06:54:09.302Z,18.03
2019-02-19T06:56:39.712Z,17.00
2019-02-19T06:59:10.145Z,16.73
2019-02-19T07:01:58.152Z,12.67
2019-02-19T07:04:32.845Z,12.73
2019-02-19T07:07:03.272Z,13.30
2019-02-19T07:09:33.697Z,14.20
2019-02-19T07:12:04.108Z,12.03
2019-02-19T07:14:34.538Z,11.97
2019-02-19T07:17:04.934Z,12.13
2019-02-19T07:19:35.445Z,12.40
2019-02-19T07:22:05.894Z,12.37
2019-02-19T07:24:36.330Z,11.27
2019-02-19T07:27:06.743Z,13.30
2019-02-19T07:29:40.291Z,13.50
2019-02-19T07:32:15.928Z,12.40
2019-02-19T07:34:46.382Z,12.97
2019-02-19T07:37:16.774Z,12.30
2019-02-19T07:39:47.848Z,13.70
2019-02-19T07:42:20.988Z,13.50
2019-02-19T07:44:55.816Z,11.80
2019-02-19T07:47:29.789Z,11.63
2019-02-19T07:50:00.298Z,10.57
2019-02-19T07:52:32.252Z,11.87
2019-02-19T07:55:05.338Z,15.20
2019-02-19T07:57:37.346Z,16.20
2019-02-19T08:00:15.015Z,14.10
2019-02-19T08:02:45.416Z,14.17
2019-02-19T08:05:15.940Z,15.47
2019-02-19T08:07:46.350Z,16.47
2019-02-19T08:10:17.121Z,14.17
2019-02-19T08:12:47.518Z,12.83
2019-02-19T08:15:17.933Z,12.20
2019-02-19T08:17:48.313Z,12.50
2019-02-19T08:20:19.095Z,9.60
2019-02-19T08:22:49.641Z,10.80
2019-02-19T08:25:20.023Z,9.87
2019-02-19T08:27:51.292Z,8.17
2019-02-19T08:30:21.816Z,8.30
2019-02-19T08:32:52.208Z,9.70
2019-02-19T08:35:23.442Z,10.67
2019-02-19T08:37:53.822Z,8.63
2019-02-19T08:40:24.242Z,10.13
2019-02-19T08:42:54.678Z,9.70
2019-02-19T08:45:25.170Z,9.63
2019-02-19T08:47:55.623Z,10.43
2019-02-19T08:50:26.020Z,8.63
2019-02-19T08:52:56.423Z,9.83
2019-02-19T08:55:26.902Z,14.13
2019-02-19T08:57:57.291Z,10.30
2019-02-19T09:00:27.670Z,11.17
2019-02-19T09:02:58.087Z,9.50
2019-02-19T09:05:28.498Z,6.43
2019-02-19T09:07:58.886Z,7.03
2019-02-19T09:10:29.310Z,7.00
2019-02-19T09:12:59.708Z,6.27
2019-02-19T09:15:30.099Z,6.73
2019-02-19T09:18:00.524Z,8.57
2019-02-19T09:20:30.898Z,6.53
2019-02-19T09:23:01.635Z,6.70
2019-02-19T09:25:32.051Z,5.60
2019-02-19T09:28:02.444Z,7.77
2019-02-19T09:30:32.841Z,6.20
2019-02-19T09:33:03.329Z,5.93
2019-02-19T09:35:33.770Z,5.60
2019-02-19T09:38:04.149Z,6.07
2019-02-19T09:40:34.544Z,5.77
2019-02-19T09:43:04.973Z,4.40
2019-02-19T09:45:35.422Z,4.30
2019-02-19T09:48:05.841Z,4.60
2019-02-19T09:50:36.324Z,5.27
2019-02-19T09:53:06.769Z,5.40
2019-02-19T09:55:37.178Z,4.63
2019-02-19T09:58:07.607Z,5.07
2019-02-19T10:00:38.011Z,5.00
2019-02-19T10:03:08.470Z,4.80
2019-02-19T10:05:38.880Z,4.07
2019-02-19T10:08:10.708Z,4.90
2019-02-19T10:10:41.111Z,3.40
2019-02-19T10:13:11.497Z,3.83
2019-02-19T10:15:41.899Z,4.90
2019-02-19T10:18:12.300Z,4.90
2019-02-19T10:20:42.715Z,4.00
2019-02-19T10:23:13.108Z,5.27
2019-02-19T10:25:44.677Z,6.50
2019-02-19T10:28:16.152Z,5.50
2019-02-19T10:30:48.247Z,4.07
2019-02-19T10:33:18.707Z,3.73
2019-02-19T10:35:49.111Z,3.07
2019-02-19T10:38:19.521Z,4.00
2019-02-19T10:40:49.943Z,4.30
2019-02-19T10:43:20.321Z,4.40
2019-02-19T10:45:50.807Z,4.70
2019-02-19T10:48:21.232Z,4.23
2019-02-19T10:50:51.669Z,4.03
2019-02-19T10:53:22.084Z,4.33
2019-02-19T10:55:52.516Z,4.20
2019-02-19T10:58:23.380Z,3.73
2019-02-19T11:00:53.993Z,3.90
2019-02-19T11:03:24.412Z,3.97
2019-02-19T11:05:54.866Z,4.33
2019-02-19T11:08:25.294Z,5.80
2019-02-19T11:10:57.260Z,6.83
2019-02-19T11:13:27.675Z,5.23
2019-02-19T11:15:58.168Z,5.33
2019-02-19T11:18:29.021Z,6.57
2019-02-19T11:20:59.642Z,6.30
2019-02-19T11:23:30.053Z,6.07
2019-02-19T11:26:00.481Z,5.23
2019-02-19T11:28:30.948Z,5.30
2019-02-19T11:31:01.361Z,5.73
2019-02-19T11:33:31.814Z,7.77
2019-02-19T11:36:02.204Z,4.90
2019-02-19T11:38:33.587Z,6.13
2019-02-19T11:41:04.020Z,5.33
2019-02-19T11:43:44.669Z,6.20
2019-02-19T11:46:12.671Z,6.73
2019-02-19T11:48:58.200Z,6.00
2019-02-19T11:51:33.001Z,5.57
2019-02-19T11:54:06.367Z,4.60
2019-02-19T11:56:37.581Z,4.00
2019-02-19T11:59:08.740Z,4.53
2019-02-19T12:04:46.614Z,4.47
2019-02-19T12:07:17.089Z,3.47
2019-02-19T12:10:14.816Z,3.80
2019-02-19T12:12:19.657Z,4.07
2019-02-19T12:14:52.151Z,6.33
2019-02-19T12:17:26.879Z,3.70
2019-02-19T12:19:57.295Z,4.97
2019-02-19T12:22:30.723Z,3.73
2019-02-19T12:25:01.135Z,5.57
2019-02-19T12:27:36.522Z,5.30
2019-02-19T12:30:15.752Z,4.20
2019-02-19T12:32:46.151Z,5.67
2019-02-19T12:35:43.283Z,3.77
2019-02-19T12:38:17.160Z,3.73
2019-02-19T12:40:49.127Z,4.70
2019-02-19T12:43:27.196Z,4.30
2019-02-19T12:45:57.623Z,4.93
2019-02-19T12:48:28.102Z,4.43
2019-02-19T12:50:58.525Z,4.80
2019-02-19T12:53:40.867Z,4.80
2019-02-19T12:56:36.397Z,5.07
2019-02-19T12:59:09.718Z,6.20
2019-02-19T13:01:41.657Z,5.40
2019-02-19T13:04:14.048Z,5.73
2019-02-19T13:06:44.470Z,5.87
2019-02-19T13:09:16.382Z,6.27
2019-02-19T13:11:46.789Z,6.03
2019-02-19T13:14:19.569Z,7.20
2019-02-19T13:16:49.778Z,7.17
2019-02-19T13:19:20.223Z,8.00
2019-02-19T13:21:50.695Z,6.93
2019-02-19T13:24:21.119Z,8.03
2019-02-19T13:26:51.544Z,7.60
2019-02-19T13:29:21.978Z,9.43
2019-02-19T13:31:52.414Z,9.00
2019-02-19T13:34:22.838Z,9.87
2019-02-19T13:36:53.226Z,10.30
2019-02-19T13:39:23.692Z,10.87
2019-02-19T13:41:54.243Z,12.00
2019-02-19T13:44:24.698Z,11.87
2019-02-19T13:46:56.436Z,11.77
2019-02-19T13:49:27.054Z,11.60
2019-02-19T13:51:59.041Z,11.43
2019-02-19T13:54:31.038Z,12.97
2019-02-19T13:57:01.447Z,10.73
2019-02-19T13:59:31.841Z,10.07
2019-02-19T14:02:02.247Z,11.77
2019-02-19T14:04:33.230Z,12.70
2019-02-19T14:07:04.256Z,11.33
2019-02-19T14:09:34.832Z,10.03
2019-02-19T14:12:05.245Z,8.07
2019-02-19T14:14:37.235Z,7.70
2019-02-19T14:17:07.690Z,6.23
2019-02-19T14:19:46.677Z,6.80
2019-02-19T14:22:34.841Z,7.00
2019-02-19T14:25:17.535Z,5.70
2019-02-19T14:27:58.661Z,5.90
2019-02-19T14:30:42.555Z,6.20
2019-02-19T14:33:17.487Z,5.70
2019-02-19T14:35:52.172Z,6.17
2019-02-19T14:38:40.218Z,6.53
2019-02-19T14:41:18.140Z,6.07
2019-02-19T14:43:53.010Z,6.43
2019-02-19T14:46:43.134Z,6.00
2019-02-19T14:49:15.141Z,6.63
2019-02-19T14:52:04.809Z,6.67
2019-02-19T14:54:36.795Z,6.50
2019-02-19T14:57:10.305Z,7.00
2019-02-19T15:00:00.009Z,6.43
2019-02-19T15:02:41.496Z,6.37
2019-02-19T15:05:30.581Z,6.90
2019-02-19T15:11:36.597Z,6.60
2019-02-19T15:14:20.675Z,6.43
2019-02-19T15:17:17.416Z,7.10
2019-02-19T15:19:49.362Z,7.87
2019-02-19T15:22:38.120Z,7.60
2019-02-19T15:25:25.882Z,7.00
2019-02-19T15:28:13.003Z,8.20
2019-02-19T15:30:50.986Z,8.13
2019-02-19T15:33:44.420Z,8.03
2019-02-19T15:36:27.724Z,8.20
2019-02-19T15:39:04.443Z,9.70
2019-02-19T15:41:42.316Z,9.00
2019-02-19T15:44:22.520Z,9.90
2019-02-19T15:47:16.836Z,10.10
2019-02-19T15:50:08.646Z,9.80
2019-02-19T15:52:59.081Z,11.83
2019-02-19T15:55:49.376Z,10.30
2019-02-19T15:58:26.884Z,9.97
2019-02-19T16:01:24.869Z,10.27
2019-02-19T16:04:08.473Z,9.47
2019-02-19T16:06:47.328Z,9.73
2019-02-19T16:09:34.959Z,10.17
2019-02-19T16:12:22.120Z,15.07
2019-02-19T16:15:03.842Z,13.77
2019-02-19T16:18:08.984Z,13.87
2019-02-19T16:20:38.821Z,14.20
2019-02-19T16:23:26.920Z,13.37
2019-02-19T16:25:59.276Z,12.00
2019-02-19T16:28:48.173Z,11.37
2019-02-19T16:31:42.101Z,11.97
2019-02-19T16:34:14.128Z,11.37
2019-02-19T16:36:55.481Z,12.37
2019-02-19T16:39:34.312Z,13.17
2019-02-19T16:42:13.573Z,14.03
2019-02-19T16:45:02.371Z,13.87
2019-02-19T16:47:37.726Z,13.30
2019-02-19T16:50:20.204Z,15.90
2019-02-19T16:53:10.257Z,14.97
2019-02-19T16:55:47.729Z,15.53
2019-02-19T16:58:35.277Z,16.53
2019-02-19T17:01:07.641Z,15.30
2019-02-19T17:03:44.236Z,15.20
2019-02-19T17:06:16.411Z,14.30
2019-02-19T17:08:53.142Z,14.93
2019-02-19T17:11:29.183Z,15.40
2019-02-19T17:14:16.233Z,15.53
2019-02-19T17:16:57.243Z,14.47
2019-02-19T17:19:48.589Z,15.57
2019-02-19T17:22:36.931Z,10.70
2019-02-19T17:25:12.782Z,12.13
2019-02-19T17:27:53.137Z,11.57
2019-02-19T17:30:36.904Z,11.27
2019-02-19T17:33:15.542Z,10.90
2019-02-19T17:35:57.794Z,10.97
2019-02-19T17:38:35.715Z,10.93
2019-02-19T17:41:16.459Z,11.00
2019-02-19T17:44:05.800Z,10.33
2019-02-19T17:46:39.075Z,11.13
2019-02-19T17:49:16.361Z,10.37
2019-02-19T17:51:51.172Z,8.90
2019-02-19T17:54:27.736Z,7.73
2019-02-19T17:57:11.588Z,6.83
2019-02-19T18:00:07.271Z,7.23
2019-02-19T18:02:44.497Z,7.23
2019-02-19T18:05:18.566Z,6.20
2019-02-19T18:07:52.065Z,6.77
2019-02-19T18:10:29.799Z,6.40
2019-02-19T18:13:06.056Z,7.80
2019-02-19T18:15:45.562Z,7.70
2019-02-19T18:18:29.930Z,7.93
2019-02-19T18:20:58.809Z,7.33
2019-02-19T18:23:30.814Z,7.53
2019-02-19T18:26:09.888Z,6.83
2019-02-19T18:28:40.487Z,7.23
2019-02-19T18:31:17.273Z,7.23
2019-02-19T18:33:51.110Z,8.03
2019-02-19T18:36:24.962Z,7.57
2019-02-19T18:39:10.875Z,8.00
2019-02-19T18:41:35.093Z,8.40
2019-02-19T18:44:05.518Z,9.47
2019-02-19T18:46:38.664Z,9.73
2019-02-19T18:49:14.829Z,8.97
2019-02-19T18:51:48.038Z,8.87
2019-02-19T18:54:27.945Z,10.00
2019-02-19T18:56:58.364Z,9.63
2019-02-19T18:59:31.568Z,10.43
2019-02-19T19:02:13.407Z,10.70
2019-02-19T19:04:51.070Z,10.37
2019-02-19T19:07:24.758Z,10.57
2019-02-19T19:09:57.243Z,11.67
2019-02-19T19:12:35.212Z,10.97
2019-02-19T19:15:08.273Z,11.53
2019-02-19T19:17:40.414Z,12.00
2019-02-19T19:20:11.835Z,11.27
2019-02-19T19:22:42.295Z,12.67
2019-02-19T19:25:12.765Z,13.17
2019-02-19T19:27:43.306Z,11.90
2019-02-19T19:30:15.727Z,10.97
2019-02-19T19:32:46.233Z,11.27
2019-02-19T19:35:16.767Z,10.90
2019-02-19T19:37:47.193Z,9.30
2019-02-19T19:40:20.336Z,9.00
2019-02-19T19:42:54.730Z,8.80
2019-02-19T19:45:25.284Z,9.47
2019-02-19T19:47:57.594Z,8.90
2019-02-19T19:50:31.348Z,8.30
2019-02-19T19:53:01.736Z,8.07
2019-02-19T19:55:33.433Z,7.87
2019-02-19T19:58:04.216Z,7.30
2019-02-19T20:00:35.098Z,6.30
2019-02-19T20:03:05.513Z,6.70
2019-02-19T20:05:38.352Z,6.53
2019-02-19T20:08:13.921Z,6.67
2019-02-19T20:10:46.244Z,6.53
2019-02-19T20:13:16.677Z,9.47
2019-02-19T20:15:49.382Z,6.60
2019-02-19T20:18:22.659Z,6.47
2019-02-19T20:20:53.249Z,7.20
2019-02-19T20:23:23.751Z,7.60
2019-02-19T20:25:54.182Z,7.73
2019-02-19T20:28:24.654Z,8.20
2019-02-19T20:30:55.080Z,8.20
2019-02-19T20:33:25.687Z,8.83
2019-02-19T20:35:57.931Z,8.67
2019-02-19T20:38:28.256Z,8.17
2019-02-19T20:40:58.777Z,6.87
2019-02-19T20:43:29.169Z,9.70
2019-02-19T20:45:59.644Z,9.37
2019-02-19T20:48:30.009Z,8.83
2019-02-19T20:51:00.444Z,9.33
2019-02-19T20:53:30.873Z,8.83
2019-02-19T20:56:01.264Z,8.87
2019-02-19T20:58:33.846Z,8.53
2019-02-19T21:01:03.818Z,9.17
2019-02-19T21:03:34.292Z,8.13
2019-02-19T21:06:04.670Z,9.23
2019-02-19T21:08:35.051Z,9.27
2019-02-19T21:11:05.534Z,9.83
2019-02-19T21:13:35.955Z,10.77
2019-02-19T21:16:06.344Z,9.83
2019-02-19T21:18:36.839Z,10.00
2019-02-19T21:21:07.234Z,9.33
2019-02-19T21:23:37.633Z,11.47
2019-02-19T21:26:08.047Z,11.17
2019-02-19T21:28:38.466Z,10.37
2019-02-19T21:31:08.908Z,11.70
2019-02-19T21:33:39.337Z,11.27
2019-02-19T21:36:09.896Z,12.27
2019-02-19T21:38:40.326Z,12.37
2019-02-19T21:41:10.728Z,11.63
2019-02-19T21:43:41.161Z,13.27
2019-02-19T21:46:11.543Z,19.23
2019-02-19T21:48:47.976Z,20.63
2019-02-19T21:51:14.507Z,20.83
2019-02-19T21:53:44.894Z,16.50
2019-02-19T21:56:15.286Z,16.03
2019-02-19T21:58:45.694Z,15.30
2019-02-19T22:01:16.080Z,13.10
2019-02-19T22:03:46.490Z,13.80
2019-02-19T22:06:16.874Z,13.97
2019-02-19T22:08:47.249Z,12.43
2019-02-19T22:11:17.648Z,13.27
2019-02-19T22:13:48.032Z,12.93
2019-02-19T22:16:18.452Z,12.83
2019-02-19T22:18:48.845Z,12.10
2019-02-19T22:21:23.526Z,12.37
2019-02-19T22:23:53.955Z,11.77
2019-02-19T22:26:24.373Z,11.27
2019-02-19T22:28:54.767Z,10.17
2019-02-19T22:31:25.179Z,9.50
2019-02-19T22:33:53.998Z,10.03
2019-02-19T22:36:22.801Z,8.90
2019-02-19T22:38:55.135Z,8.27
2019-02-19T22:41:25.514Z,8.63
2019-02-19T22:43:55.941Z,8.27
2019-02-19T22:46:26.330Z,8.90
2019-02-19T22:48:56.700Z,7.10
2019-02-19T22:51:27.100Z,7.27
2019-02-19T22:54:02.106Z,7.50
2019-02-19T22:56:34.069Z,6.37
2019-02-19T22:59:04.477Z,7.20
2019-02-19T23:01:36.441Z,6.73
2019-02-19T23:04:06.846Z,7.17
2019-02-19T23:06:37.261Z,6.47
2019-02-19T23:09:07.656Z,6.70
2019-02-19T23:11:38.057Z,6.87
2019-02-19T23:14:08.454Z,6.73
2019-02-19T23:16:38.828Z,6.47
2019-02-19T23:19:09.226Z,6.10
2019-02-19T23:21:39.608Z,6.13
2019-02-19T23:24:10.005Z,6.13
2019-02-19T23:26:40.371Z,5.40
2019-02-19T23:29:10.752Z,6.17
2019-02-19T23:31:41.153Z,6.33
2019-02-19T23:34:11.605Z,6.07
2019-02-19T23:36:43.593Z,7.20
2019-02-19T23:39:14.034Z,6.67
2019-02-19T23:41:45.398Z,6.40
2019-02-19T23:44:15.798Z,5.97
2019-02-19T23:46:46.192Z,5.50
2019-02-19T23:49:16.611Z,5.73
2019-02-19T23:51:47.005Z,5.70
2019-02-19T23:54:17.411Z,6.07
2019-02-19T23:56:47.826Z,6.27
2019-02-19T23:59:18.244Z,5.97
